sensor_id;sensor_type;location;lat;lon;timestamp;pressure;altitude;pressure_sealevel;temperature;humidity
12636;BME280;6383;50.830;7.210;2023-03-31T00:01:09;99873.22;;;13.94;70.42
12636;BME280;6383;50.830;7.210;2023-03-31T00:03:39;99870.81;;;13.92;71.01
12636;BME280;6383;50.830;7.210;2023-03-31T00:06:09;99863.75;;;13.91;70.76
12636;BME280;6383;50.830;7.210;2023-03-31T00:08:43;99857.34;;;13.87;71.55
12636;BME280;6383;50.830;7.210;2023-03-31T00:11:11;99850.63;;;13.85;72.43
12636;BME280;6383;50.830;7.210;2023-03-31T00:13:40;99856.09;;;13.85;73.23
12636;BME280;6383;50.830;7.210;2023-03-31T00:16:09;99849.03;;;13.84;73.61
12636;BME280;6383;50.830;7.210;2023-03-31T00:18:38;99840.03;;;13.83;73.86
12636;BME280;6383;50.830;7.210;2023-03-31T00:21:15;99840.81;;;13.84;74.21
12636;BME280;6383;50.830;7.210;2023-03-31T00:23:53;99833.28;;;13.81;74.08
12636;BME280;6383;50.830;7.210;2023-03-31T00:26:22;99837.97;;;13.80;74.82
12636;BME280;6383;50.830;7.210;2023-03-31T00:28:52;99825.44;;;13.79;74.84
12636;BME280;6383;50.830;7.210;2023-03-31T00:31:20;99830.13;;;13.79;74.84
12636;BME280;6383;50.830;7.210;2023-03-31T00:33:51;99821.13;;;13.78;75.10
12636;BME280;6383;50.830;7.210;2023-03-31T00:36:19;99817.91;;;13.76;75.43
12636;BME280;6383;50.830;7.210;2023-03-31T00:38:52;99816.66;;;13.73;75.11
12636;BME280;6383;50.830;7.210;2023-03-31T00:41:23;99807.66;;;13.73;75.67
12636;BME280;6383;50.830;7.210;2023-03-31T00:44:06;99805.72;;;13.73;75.58
12636;BME280;6383;50.830;7.210;2023-03-31T00:46:40;99791.91;;;13.70;76.64
12636;BME280;6383;50.830;7.210;2023-03-31T00:49:15;99788.03;;;13.71;76.76
12636;BME280;6383;50.830;7.210;2023-03-31T00:51:48;99775.84;;;13.68;76.60
12636;BME280;6383;50.830;7.210;2023-03-31T00:54:20;99772.31;;;13.68;76.52
12636;BME280;6383;50.830;7.210;2023-03-31T00:56:52;99767.97;;;13.67;76.82
12636;BME280;6383;50.830;7.210;2023-03-31T00:59:26;99762.41;;;13.63;76.50
12636;BME280;6383;50.830;7.210;2023-03-31T01:01:56;99761.16;;;13.61;76.52
12636;BME280;6383;50.830;7.210;2023-03-31T01:04:32;99753.28;;;13.59;76.29
12636;BME280;6383;50.830;7.210;2023-03-31T01:07:07;99751.69;;;13.58;76.34
12636;BME280;6383;50.830;7.210;2023-03-31T01:09:39;99734.38;;;13.54;76.72
12636;BME280;6383;50.830;7.210;2023-03-31T01:12:09;99728.91;;;13.54;76.54
12636;BME280;6383;50.830;7.210;2023-03-31T01:14:38;99715.09;;;13.51;76.64
12636;BME280;6383;50.830;7.210;2023-03-31T01:17:06;99724.81;;;13.48;76.83
12636;BME280;6383;50.830;7.210;2023-03-31T01:19:50;99715.34;;;13.46;76.09
12636;BME280;6383;50.830;7.210;2023-03-31T01:22:49;99711.00;;;13.45;76.83
12636;BME280;6383;50.830;7.210;2023-03-31T01:28:32;99695.75;;;13.31;76.66
12636;BME280;6383;50.830;7.210;2023-03-31T01:31:39;99688.34;;;13.32;76.63
12636;BME280;6383;50.830;7.210;2023-03-31T01:37:26;99690.94;;;13.28;77.12
12636;BME280;6383;50.830;7.210;2023-03-31T01:40:42;99683.22;;;13.30;76.49
12636;BME280;6383;50.830;7.210;2023-03-31T01:43:16;99679.69;;;13.30;76.91
12636;BME280;6383;50.830;7.210;2023-03-31T01:45:53;99669.53;;;13.30;77.04
12636;BME280;6383;50.830;7.210;2023-03-31T01:48:32;99670.81;;;13.33;77.28
12636;BME280;6383;50.830;7.210;2023-03-31T01:51:05;99671.59;;;13.33;77.30
12636;BME280;6383;50.830;7.210;2023-03-31T01:53:41;99663.06;;;13.35;77.00
12636;BME280;6383;50.830;7.210;2023-03-31T01:56:19;99659.16;;;13.36;77.05
12636;BME280;6383;50.830;7.210;2023-03-31T01:58:52;99657.25;;;13.36;77.02
12636;BME280;6383;50.830;7.210;2023-03-31T02:01:27;99659.63;;;13.38;77.03
12636;BME280;6383;50.830;7.210;2023-03-31T02:04:08;99649.16;;;13.40;77.05
12636;BME280;6383;50.830;7.210;2023-03-31T02:06:42;99649.97;;;13.40;77.26
12636;BME280;6383;50.830;7.210;2023-03-31T02:09:15;99644.63;;;13.44;76.26
12636;BME280;6383;50.830;7.210;2023-03-31T02:11:47;99642.09;;;13.39;77.37
12636;BME280;6383;50.830;7.210;2023-03-31T02:14:19;99636.75;;;13.43;78.43
12636;BME280;6383;50.830;7.210;2023-03-31T02:16:51;99631.41;;;13.46;78.19
12636;BME280;6383;50.830;7.210;2023-03-31T02:19:29;99625.13;;;13.46;77.96
12636;BME280;6383;50.830;7.210;2023-03-31T02:22:00;99619.69;;;13.46;78.44
12636;BME280;6383;50.830;7.210;2023-03-31T02:24:31;99604.88;;;13.47;79.31
12636;BME280;6383;50.830;7.210;2023-03-31T02:27:06;99596.34;;;13.48;78.95
12636;BME280;6383;50.830;7.210;2023-03-31T02:29:36;99589.72;;;13.49;79.02
12636;BME280;6383;50.830;7.210;2023-03-31T02:32:11;99585.06;;;13.50;78.99
12636;BME280;6383;50.830;7.210;2023-03-31T02:34:43;99574.47;;;13.48;79.44
12636;BME280;6383;50.830;7.210;2023-03-31T02:37:12;99563.88;;;13.47;78.88
12636;BME280;6383;50.830;7.210;2023-03-31T02:39:44;99552.94;;;13.47;79.38
12636;BME280;6383;50.830;7.210;2023-03-31T02:42:15;99543.13;;;13.46;79.39
12636;BME280;6383;50.830;7.210;2023-03-31T02:44:43;99529.00;;;13.44;79.24
12636;BME280;6383;50.830;7.210;2023-03-31T02:47:14;99521.50;;;13.40;78.88
12636;BME280;6383;50.830;7.210;2023-03-31T02:49:48;99510.91;;;13.39;79.80
12636;BME280;6383;50.830;7.210;2023-03-31T02:52:44;99513.31;;;13.40;79.39
12636;BME280;6383;50.830;7.210;2023-03-31T02:55:41;99523.69;;;13.35;79.60
12636;BME280;6383;50.830;7.210;2023-03-31T02:58:34;99498.31;;;13.34;79.50
12636;BME280;6383;50.830;7.210;2023-03-31T03:01:27;99474.84;;;13.33;80.34
12636;BME280;6383;50.830;7.210;2023-03-31T03:04:09;99471.19;;;13.29;79.98
12636;BME280;6383;50.830;7.210;2023-03-31T03:06:48;99455.94;;;13.28;80.27
12636;BME280;6383;50.830;7.210;2023-03-31T03:09:31;99444.56;;;13.26;80.62
12636;BME280;6383;50.830;7.210;2023-03-31T03:12:08;99448.78;;;13.24;80.79
12636;BME280;6383;50.830;7.210;2023-03-31T03:14:44;99451.84;;;13.22;80.65
12636;BME280;6383;50.830;7.210;2023-03-31T03:17:18;99444.69;;;13.18;80.58
12636;BME280;6383;50.830;7.210;2023-03-31T03:19:52;99441.53;;;13.16;80.25
12636;BME280;6383;50.830;7.210;2023-03-31T03:22:22;99433.97;;;13.13;80.63
12636;BME280;6383;50.830;7.210;2023-03-31T03:24:51;99440.13;;;13.10;80.28
12636;BME280;6383;50.830;7.210;2023-03-31T03:27:21;99440.81;;;13.06;81.22
12636;BME280;6383;50.830;7.210;2023-03-31T03:29:50;99453.66;;;13.06;80.80
12636;BME280;6383;50.830;7.210;2023-03-31T03:32:18;99453.66;;;13.06;81.11
12636;BME280;6383;50.830;7.210;2023-03-31T03:34:48;99444.69;;;13.05;80.52
12636;BME280;6383;50.830;7.210;2023-03-31T03:37:17;99426.25;;;13.02;81.02
12636;BME280;6383;50.830;7.210;2023-03-31T03:39:46;99402.13;;;13.04;81.03
12636;BME280;6383;50.830;7.210;2023-03-31T03:42:14;99406.81;;;13.04;81.32
12636;BME280;6383;50.830;7.210;2023-03-31T03:44:43;99395.06;;;13.03;80.50
12636;BME280;6383;50.830;7.210;2023-03-31T03:47:11;99379.84;;;13.02;80.70
12636;BME280;6383;50.830;7.210;2023-03-31T03:49:40;99381.75;;;13.02;80.78
12636;BME280;6383;50.830;7.210;2023-03-31T03:52:08;99393.50;;;13.02;80.07
12636;BME280;6383;50.830;7.210;2023-03-31T03:54:35;99386.88;;;13.03;80.33
12636;BME280;6383;50.830;7.210;2023-03-31T03:57:06;99378.69;;;13.03;80.26
12636;BME280;6383;50.830;7.210;2023-03-31T03:59:35;99380.28;;;13.04;80.49
12636;BME280;6383;50.830;7.210;2023-03-31T04:02:04;99364.69;;;13.05;79.83
12636;BME280;6383;50.830;7.210;2023-03-31T04:04:34;99379.91;;;13.06;80.37
12636;BME280;6383;50.830;7.210;2023-03-31T04:07:03;99379.22;;;13.09;80.21
12636;BME280;6383;50.830;7.210;2023-03-31T04:09:32;99372.16;;;13.08;80.30
12636;BME280;6383;50.830;7.210;2023-03-31T04:11:59;99365.13;;;13.07;80.33
12636;BME280;6383;50.830;7.210;2023-03-31T04:14:30;99359.56;;;13.03;80.14
12636;BME280;6383;50.830;7.210;2023-03-31T04:16:58;99355.59;;;13.01;80.61
12636;BME280;6383;50.830;7.210;2023-03-31T04:19:29;99353.66;;;13.01;80.03
12636;BME280;6383;50.830;7.210;2023-03-31T04:21:57;99355.13;;;12.99;80.19
12636;BME280;6383;50.830;7.210;2023-03-31T04:24:29;99355.13;;;12.99;79.73
12636;BME280;6383;50.830;7.210;2023-03-31T04:26:59;99340.69;;;12.98;79.77
12636;BME280;6383;50.830;7.210;2023-03-31T04:29:30;99329.75;;;12.98;79.12
12636;BME280;6383;50.830;7.210;2023-03-31T04:31:59;99325.88;;;12.99;79.38
12636;BME280;6383;50.830;7.210;2023-03-31T04:34:27;99316.91;;;12.99;79.58
12636;BME280;6383;50.830;7.210;2023-03-31T04:37:01;99313.81;;;13.00;78.67
12636;BME280;6383;50.830;7.210;2023-03-31T04:39:31;99307.91;;;12.98;78.23
12636;BME280;6383;50.830;7.210;2023-03-31T04:42:00;99283.34;;;12.98;78.35
12636;BME280;6383;50.830;7.210;2023-03-31T04:44:30;99275.94;;;12.99;78.12
12636;BME280;6383;50.830;7.210;2023-03-31T04:46:58;99254.44;;;12.97;77.76
12636;BME280;6383;50.830;7.210;2023-03-31T04:49:29;99252.03;;;12.96;77.93
12636;BME280;6383;50.830;7.210;2023-03-31T04:51:59;99246.94;;;12.94;78.64
12636;BME280;6383;50.830;7.210;2023-03-31T04:54:27;99248.53;;;12.95;78.66
12636;BME280;6383;50.830;7.210;2023-03-31T04:56:54;99246.59;;;12.96;78.49
12636;BME280;6383;50.830;7.210;2023-03-31T04:59:23;99227.00;;;12.94;78.08
12636;BME280;6383;50.830;7.210;2023-03-31T05:01:54;99220.75;;;12.93;78.52
12636;BME280;6383;50.830;7.210;2023-03-31T05:04:23;99221.09;;;12.92;78.15
12636;BME280;6383;50.830;7.210;2023-03-31T05:06:51;99215.22;;;12.90;78.54
12636;BME280;6383;50.830;7.210;2023-03-31T05:09:19;99207.03;;;12.90;78.34
12636;BME280;6383;50.830;7.210;2023-03-31T05:11:47;99199.19;;;12.88;77.79
12636;BME280;6383;50.830;7.210;2023-03-31T05:14:16;99205.00;;;12.87;77.90
12636;BME280;6383;50.830;7.210;2023-03-31T05:16:44;99199.53;;;12.87;77.38
12636;BME280;6383;50.830;7.210;2023-03-31T05:19:15;99207.38;;;12.88;77.40
12636;BME280;6383;50.830;7.210;2023-03-31T05:21:44;99198.03;;;12.89;77.48
12636;BME280;6383;50.830;7.210;2023-03-31T05:24:12;99191.44;;;12.90;76.99
12636;BME280;6383;50.830;7.210;2023-03-31T05:26:41;99194.19;;;12.90;76.94
12636;BME280;6383;50.830;7.210;2023-03-31T05:29:13;99168.81;;;12.90;76.73
12636;BME280;6383;50.830;7.210;2023-03-31T05:31:42;99155.16;;;12.90;76.83
12636;BME280;6383;50.830;7.210;2023-03-31T05:34:13;99170.00;;;12.92;76.13
12636;BME280;6383;50.830;7.210;2023-03-31T05:36:44;99185.72;;;12.95;76.37
12636;BME280;6383;50.830;7.210;2023-03-31T05:39:13;99179.91;;;12.97;76.38
12636;BME280;6383;50.830;7.210;2023-03-31T05:41:42;99156.56;;;12.99;76.15
12636;BME280;6383;50.830;7.210;2023-03-31T05:44:13;99171.81;;;13.00;75.63
12636;BME280;6383;50.830;7.210;2023-03-31T05:46:42;99157.00;;;13.01;75.64
12636;BME280;6383;50.830;7.210;2023-03-31T05:49:16;99144.59;;;13.04;75.91
12636;BME280;6383;50.830;7.210;2023-03-31T05:51:47;99139.13;;;13.04;75.31
12636;BME280;6383;50.830;7.210;2023-03-31T05:54:17;99137.19;;;13.04;74.96
12636;BME280;6383;50.830;7.210;2023-03-31T05:56:55;99136.41;;;13.04;75.08
12636;BME280;6383;50.830;7.210;2023-03-31T05:59:24;99130.50;;;13.02;74.36
12636;BME280;6383;50.830;7.210;2023-03-31T06:01:53;99123.88;;;13.03;73.42
12636;BME280;6383;50.830;7.210;2023-03-31T06:04:21;99127.41;;;13.03;74.00
12636;BME280;6383;50.830;7.210;2023-03-31T06:06:52;99124.34;;;13.05;73.55
12636;BME280;6383;50.830;7.210;2023-03-31T06:09:22;99109.88;;;13.04;73.13
12636;BME280;6383;50.830;7.210;2023-03-31T06:11:52;99114.56;;;13.04;72.67
12636;BME280;6383;50.830;7.210;2023-03-31T06:14:21;99122.00;;;13.07;72.69
12636;BME280;6383;50.830;7.210;2023-03-31T06:16:50;99115.75;;;13.06;71.68
12636;BME280;6383;50.830;7.210;2023-03-31T06:19:18;99110.69;;;13.05;72.31
12636;BME280;6383;50.830;7.210;2023-03-31T06:21:48;99112.22;;;13.06;71.52
12636;BME280;6383;50.830;7.210;2023-03-31T06:24:18;99103.28;;;13.05;71.31
12636;BME280;6383;50.830;7.210;2023-03-31T06:26:46;99118.50;;;13.06;71.13
12636;BME280;6383;50.830;7.210;2023-03-31T06:29:13;99113.81;;;13.07;72.03
12636;BME280;6383;50.830;7.210;2023-03-31T06:31:42;99099.81;;;13.08;71.06
12636;BME280;6383;50.830;7.210;2023-03-31T06:34:11;99102.09;;;13.06;70.69
12636;BME280;6383;50.830;7.210;2023-03-31T06:36:38;99100.53;;;13.05;71.23
12636;BME280;6383;50.830;7.210;2023-03-31T06:39:07;99090.38;;;13.06;71.27
12636;BME280;6383;50.830;7.210;2023-03-31T06:41:37;99072.44;;;13.05;70.76
12636;BME280;6383;50.830;7.210;2023-03-31T06:44:05;99079.03;;;13.04;70.73
12636;BME280;6383;50.830;7.210;2023-03-31T06:46:35;99085.31;;;13.04;71.30
12636;BME280;6383;50.830;7.210;2023-03-31T06:49:04;99072.06;;;13.06;71.57
12636;BME280;6383;50.830;7.210;2023-03-31T06:51:33;99082.97;;;13.06;71.12
12636;BME280;6383;50.830;7.210;2023-03-31T06:54:02;99074.00;;;13.06;71.76
12636;BME280;6383;50.830;7.210;2023-03-31T06:56:31;99071.25;;;13.06;71.56
12636;BME280;6383;50.830;7.210;2023-03-31T06:59:01;99066.97;;;13.05;72.31
12636;BME280;6383;50.830;7.210;2023-03-31T07:01:29;99067.78;;;13.05;72.04
12636;BME280;6383;50.830;7.210;2023-03-31T07:03:58;99067.78;;;13.05;72.63
12636;BME280;6383;50.830;7.210;2023-03-31T07:06:26;99065.44;;;13.07;72.60
12636;BME280;6383;50.830;7.210;2023-03-31T07:08:55;99068.97;;;13.08;72.15
12636;BME280;6383;50.830;7.210;2023-03-31T07:11:23;99076.81;;;13.10;72.62
12636;BME280;6383;50.830;7.210;2023-03-31T07:13:51;99066.34;;;13.12;72.59
12636;BME280;6383;50.830;7.210;2023-03-31T07:16:21;99069.06;;;13.12;72.06
12636;BME280;6383;50.830;7.210;2023-03-31T07:18:49;99060.53;;;13.13;72.16
12636;BME280;6383;50.830;7.210;2023-03-31T07:21:20;99056.66;;;13.14;72.17
12636;BME280;6383;50.830;7.210;2023-03-31T07:23:49;99058.28;;;13.15;72.38
12636;BME280;6383;50.830;7.210;2023-03-31T07:26:18;99056.78;;;13.18;72.24
12636;BME280;6383;50.830;7.210;2023-03-31T07:28:46;99048.28;;;13.23;72.84
12636;BME280;6383;50.830;7.210;2023-03-31T07:31:15;99058.16;;;13.27;72.70
12636;BME280;6383;50.830;7.210;2023-03-31T07:33:44;99051.19;;;13.30;72.70
12636;BME280;6383;50.830;7.210;2023-03-31T07:36:13;99048.91;;;13.32;72.04
12636;BME280;6383;50.830;7.210;2023-03-31T07:38:45;99043.53;;;13.35;72.61
12636;BME280;6383;50.830;7.210;2023-03-31T07:41:17;99045.53;;;13.38;72.93
12636;BME280;6383;50.830;7.210;2023-03-31T07:43:45;99044.91;;;13.45;72.40
12636;BME280;6383;50.830;7.210;2023-03-31T07:46:17;99047.72;;;13.49;72.44
12636;BME280;6383;50.830;7.210;2023-03-31T07:48:49;99043.47;;;13.51;72.37
12636;BME280;6383;50.830;7.210;2023-03-31T07:51:18;99045.50;;;13.54;72.40
12636;BME280;6383;50.830;7.210;2023-03-31T07:53:48;99046.03;;;13.60;72.07
12636;BME280;6383;50.830;7.210;2023-03-31T07:56:20;99049.25;;;13.65;72.74
12636;BME280;6383;50.830;7.210;2023-03-31T07:58:50;99045.09;;;13.71;72.53
12636;BME280;6383;50.830;7.210;2023-03-31T08:01:20;99044.81;;;13.76;72.53
12636;BME280;6383;50.830;7.210;2023-03-31T08:03:54;99048.84;;;13.83;72.40
12636;BME280;6383;50.830;7.210;2023-03-31T08:06:24;99050.16;;;13.89;71.99
12636;BME280;6383;50.830;7.210;2023-03-31T08:08:52;99039.66;;;13.91;72.10
12636;BME280;6383;50.830;7.210;2023-03-31T08:11:21;99027.25;;;13.97;71.86
12636;BME280;6383;50.830;7.210;2023-03-31T08:13:49;99017.53;;;13.99;71.34
12636;BME280;6383;50.830;7.210;2023-03-31T08:16:18;99009.41;;;14.03;71.92
12636;BME280;6383;50.830;7.210;2023-03-31T08:18:48;99010.63;;;14.05;72.04
12636;BME280;6383;50.830;7.210;2023-03-31T08:21:18;99011.13;;;14.11;71.32
12636;BME280;6383;50.830;7.210;2023-03-31T08:23:45;99003.34;;;14.13;72.01
12636;BME280;6383;50.830;7.210;2023-03-31T08:26:16;99003.41;;;14.17;71.47
12636;BME280;6383;50.830;7.210;2023-03-31T08:28:46;99001.91;;;14.19;71.40
12636;BME280;6383;50.830;7.210;2023-03-31T08:31:16;99000.03;;;14.23;71.02
12636;BME280;6383;50.830;7.210;2023-03-31T08:33:44;98994.25;;;14.28;71.00
12636;BME280;6383;50.830;7.210;2023-03-31T08:36:13;98987.69;;;14.33;70.52
12636;BME280;6383;50.830;7.210;2023-03-31T08:38:43;98997.50;;;14.34;69.48
12636;BME280;6383;50.830;7.210;2023-03-31T08:41:35;98992.09;;;14.37;70.04
12636;BME280;6383;50.830;7.210;2023-03-31T08:44:13;98994.03;;;14.37;69.35
12636;BME280;6383;50.830;7.210;2023-03-31T08:46:45;98999.94;;;14.39;69.14
12636;BME280;6383;50.830;7.210;2023-03-31T08:49:17;98993.31;;;14.40;67.55
12636;BME280;6383;50.830;7.210;2023-03-31T08:51:50;98997.28;;;14.42;67.49
12636;BME280;6383;50.830;7.210;2023-03-31T08:54:28;98993.38;;;14.43;67.09
12636;BME280;6383;50.830;7.210;2023-03-31T08:56:57;98987.19;;;14.46;67.60
12636;BME280;6383;50.830;7.210;2023-03-31T08:59:29;98986.91;;;14.52;67.48
12636;BME280;6383;50.830;7.210;2023-03-31T09:02:03;98981.88;;;14.57;67.01
12636;BME280;6383;50.830;7.210;2023-03-31T09:04:53;98980.00;;;14.61;66.66
12636;BME280;6383;50.830;7.210;2023-03-31T09:07:30;98969.47;;;14.63;66.21
12636;BME280;6383;50.830;7.210;2023-03-31T09:10:16;98955.84;;;14.67;65.72
12636;BME280;6383;50.830;7.210;2023-03-31T09:12:55;98967.25;;;14.69;65.43
12636;BME280;6383;50.830;7.210;2023-03-31T09:15:27;98970.00;;;14.72;66.33
12636;BME280;6383;50.830;7.210;2023-03-31T09:17:58;98957.19;;;14.76;66.11
12636;BME280;6383;50.830;7.210;2023-03-31T09:20:33;98959.19;;;14.79;66.12
12636;BME280;6383;50.830;7.210;2023-03-31T09:23:05;98942.81;;;14.83;65.58
12636;BME280;6383;50.830;7.210;2023-03-31T09:25:40;98942.84;;;14.87;65.68
12636;BME280;6383;50.830;7.210;2023-03-31T09:28:13;98946.81;;;14.89;65.13
12636;BME280;6383;50.830;7.210;2023-03-31T09:30:47;98944.13;;;14.93;65.15
12636;BME280;6383;50.830;7.210;2023-03-31T09:33:18;98939.91;;;14.99;65.50
12636;BME280;6383;50.830;7.210;2023-03-31T09:35:50;98936.84;;;15.04;65.19
12636;BME280;6383;50.830;7.210;2023-03-31T09:38:19;98927.53;;;15.08;64.98
12636;BME280;6383;50.830;7.210;2023-03-31T09:40:50;98933.84;;;15.12;64.18
12636;BME280;6383;50.830;7.210;2023-03-31T09:43:21;98910.00;;;15.16;63.38
12636;BME280;6383;50.830;7.210;2023-03-31T09:45:52;98914.38;;;15.21;63.57
12636;BME280;6383;50.830;7.210;2023-03-31T09:48:25;98908.97;;;15.25;63.39
12636;BME280;6383;50.830;7.210;2023-03-31T09:50:58;98917.63;;;15.30;63.41
12636;BME280;6383;50.830;7.210;2023-03-31T09:53:32;98909.47;;;15.34;62.64
12636;BME280;6383;50.830;7.210;2023-03-31T09:56:07;98906.41;;;15.39;62.25
12636;BME280;6383;50.830;7.210;2023-03-31T09:58:40;98917.41;;;15.42;61.65
12636;BME280;6383;50.830;7.210;2023-03-31T10:01:10;98897.88;;;15.47;61.60
12636;BME280;6383;50.830;7.210;2023-03-31T10:03:48;98895.59;;;15.53;60.79
12636;BME280;6383;50.830;7.210;2023-03-31T10:06:18;98889.44;;;15.60;60.39
12636;BME280;6383;50.830;7.210;2023-03-31T10:08:53;98884.00;;;15.63;59.86
12636;BME280;6383;50.830;7.210;2023-03-31T10:11:24;98889.53;;;15.67;58.74
12636;BME280;6383;50.830;7.210;2023-03-31T10:14:00;98888.41;;;15.71;58.47
12636;BME280;6383;50.830;7.210;2023-03-31T10:16:32;98886.06;;;15.73;58.29
12636;BME280;6383;50.830;7.210;2023-03-31T10:19:12;98887.63;;;15.74;58.33
12636;BME280;6383;50.830;7.210;2023-03-31T10:21:44;98887.63;;;15.74;58.31
12636;BME280;6383;50.830;7.210;2023-03-31T10:24:17;98892.31;;;15.74;57.77
12636;BME280;6383;50.830;7.210;2023-03-31T10:26:51;98885.66;;;15.71;58.51
12636;BME280;6383;50.830;7.210;2023-03-31T10:29:25;98883.28;;;15.70;58.44
12636;BME280;6383;50.830;7.210;2023-03-31T10:32:01;98886.41;;;15.68;59.19
12636;BME280;6383;50.830;7.210;2023-03-31T10:34:30;98890.69;;;15.66;58.76
12636;BME280;6383;50.830;7.210;2023-03-31T10:37:03;98889.91;;;15.65;59.05
12636;BME280;6383;50.830;7.210;2023-03-31T10:39:32;98889.09;;;15.65;58.58
12636;BME280;6383;50.830;7.210;2023-03-31T10:42:02;98891.06;;;15.64;59.31
12636;BME280;6383;50.830;7.210;2023-03-31T10:44:32;98893.78;;;15.64;58.99
12636;BME280;6383;50.830;7.210;2023-03-31T10:47:06;98882.00;;;15.60;58.03
12636;BME280;6383;50.830;7.210;2023-03-31T10:49:47;98889.81;;;15.58;57.63
12636;BME280;6383;50.830;7.210;2023-03-31T10:52:19;98883.13;;;15.56;57.18
12636;BME280;6383;50.830;7.210;2023-03-31T10:54:50;98894.41;;;15.50;58.03
12636;BME280;6383;50.830;7.210;2023-03-31T10:57:31;98906.88;;;15.48;58.65
12636;BME280;6383;50.830;7.210;2023-03-31T11:00:17;98906.03;;;15.40;58.40
12636;BME280;6383;50.830;7.210;2023-03-31T11:03:16;98913.34;;;15.33;58.70
12636;BME280;6383;50.830;7.210;2023-03-31T11:05:54;98926.56;;;15.24;59.69
12636;BME280;6383;50.830;7.210;2023-03-31T11:08:51;98931.50;;;15.14;61.65
12636;BME280;6383;50.830;7.210;2023-03-31T11:11:33;98919.69;;;15.07;60.44
12636;BME280;6383;50.830;7.210;2023-03-31T11:14:14;98908.00;;;14.84;63.07
12636;BME280;6383;50.830;7.210;2023-03-31T11:16:50;98904.66;;;14.71;64.36
12636;BME280;6383;50.830;7.210;2023-03-31T11:19:30;98914.34;;;14.65;65.11
12636;BME280;6383;50.830;7.210;2023-03-31T11:22:08;98911.91;;;14.60;66.28
12636;BME280;6383;50.830;7.210;2023-03-31T11:28:13;98908.66;;;14.51;65.37
12636;BME280;6383;50.830;7.210;2023-03-31T11:30:53;98887.41;;;14.44;65.08
12636;BME280;6383;50.830;7.210;2023-03-31T11:33:42;98871.34;;;14.42;64.62
12636;BME280;6383;50.830;7.210;2023-03-31T11:36:22;98865.41;;;14.37;63.51
12636;BME280;6383;50.830;7.210;2023-03-31T11:39:06;98868.94;;;14.37;64.28
12636;BME280;6383;50.830;7.210;2023-03-31T11:41:42;98861.13;;;14.39;63.98
12636;BME280;6383;50.830;7.210;2023-03-31T11:44:14;98860.41;;;14.42;64.12
12636;BME280;6383;50.830;7.210;2023-03-31T11:46:48;98865.59;;;14.48;63.74
12636;BME280;6383;50.830;7.210;2023-03-31T11:49:22;98864.84;;;14.51;63.19
12636;BME280;6383;50.830;7.210;2023-03-31T11:51:55;98859.44;;;14.54;63.73
12636;BME280;6383;50.830;7.210;2023-03-31T11:54:28;98868.13;;;14.60;63.27
12636;BME280;6383;50.830;7.210;2023-03-31T11:57:00;98856.44;;;14.63;63.35
12636;BME280;6383;50.830;7.210;2023-03-31T11:59:31;98862.75;;;14.67;63.74
12636;BME280;6383;50.830;7.210;2023-03-31T12:02:08;98858.91;;;14.71;63.83
12636;BME280;6383;50.830;7.210;2023-03-31T12:04:38;98858.53;;;14.73;63.80
12636;BME280;6383;50.830;7.210;2023-03-31T12:07:20;98860.16;;;14.77;63.43
12636;BME280;6383;50.830;7.210;2023-03-31T12:09:54;98866.84;;;14.80;63.36
12636;BME280;6383;50.830;7.210;2023-03-31T12:12:32;98862.16;;;14.80;65.59
12636;BME280;6383;50.830;7.210;2023-03-31T12:15:07;98853.59;;;14.82;66.16
12636;BME280;6383;50.830;7.210;2023-03-31T12:17:44;98847.69;;;14.80;65.95
12636;BME280;6383;50.830;7.210;2023-03-31T12:20:22;98848.84;;;14.79;65.60
12636;BME280;6383;50.830;7.210;2023-03-31T12:22:54;98839.84;;;14.78;66.84
12636;BME280;6383;50.830;7.210;2023-03-31T12:25:22;98837.09;;;14.78;66.48
12636;BME280;6383;50.830;7.210;2023-03-31T12:27:53;98838.56;;;14.72;65.41
12636;BME280;6383;50.830;7.210;2023-03-31T12:30:29;98833.47;;;14.71;64.88
12636;BME280;6383;50.830;7.210;2023-03-31T12:33:06;98820.56;;;14.71;64.44
12636;BME280;6383;50.830;7.210;2023-03-31T12:35:47;98825.66;;;14.73;64.97
12636;BME280;6383;50.830;7.210;2023-03-31T12:38:37;98829.25;;;14.77;64.58
12636;BME280;6383;50.830;7.210;2023-03-31T12:41:16;98824.56;;;14.77;65.49
12636;BME280;6383;50.830;7.210;2023-03-31T12:44:04;98831.25;;;14.80;64.13
12636;BME280;6383;50.830;7.210;2023-03-31T12:46:54;98816.41;;;14.81;63.20
12636;BME280;6383;50.830;7.210;2023-03-31T12:49:41;98812.53;;;14.86;64.19
12636;BME280;6383;50.830;7.210;2023-03-31T12:52:17;98819.16;;;14.85;62.55
12636;BME280;6383;50.830;7.210;2023-03-31T12:55:03;98808.25;;;14.88;62.68
12636;BME280;6383;50.830;7.210;2023-03-31T12:57:35;98808.25;;;14.88;62.18
12636;BME280;6383;50.830;7.210;2023-03-31T13:00:18;98810.25;;;14.91;62.61
12636;BME280;6383;50.830;7.210;2023-03-31T13:06:05;98802.47;;;14.93;62.17
12636;BME280;6383;50.830;7.210;2023-03-31T13:08:53;98793.50;;;14.96;62.08
12636;BME280;6383;50.830;7.210;2023-03-31T13:11:35;98779.03;;;14.96;61.86
12636;BME280;6383;50.830;7.210;2023-03-31T13:14:05;98775.13;;;14.97;62.91
12636;BME280;6383;50.830;7.210;2023-03-31T13:16:35;98770.44;;;14.97;62.52
12636;BME280;6383;50.830;7.210;2023-03-31T13:19:04;98770.47;;;15.01;62.84
12636;BME280;6383;50.830;7.210;2023-03-31T13:21:51;98768.94;;;15.03;63.04
12636;BME280;6383;50.830;7.210;2023-03-31T13:24:20;98777.56;;;15.05;64.24
12636;BME280;6383;50.830;7.210;2023-03-31T13:26:49;98812.41;;;15.05;64.12
12636;BME280;6383;50.830;7.210;2023-03-31T13:29:22;98813.91;;;15.02;65.53
12636;BME280;6383;50.830;7.210;2023-03-31T13:32:19;98806.78;;;14.94;66.32
12636;BME280;6383;50.830;7.210;2023-03-31T13:35:01;98804.69;;;14.84;68.10
12636;BME280;6383;50.830;7.210;2023-03-31T13:37:58;98795.22;;;14.78;67.83
12636;BME280;6383;50.830;7.210;2023-03-31T13:40:52;98806.06;;;14.71;68.38
12636;BME280;6383;50.830;7.210;2023-03-31T13:46:55;98796.50;;;14.58;68.44
12636;BME280;6383;50.830;7.210;2023-03-31T13:49:49;98785.63;;;14.61;69.09
12636;BME280;6383;50.830;7.210;2023-03-31T13:52:38;98782.50;;;14.63;69.12
12636;BME280;6383;50.830;7.210;2023-03-31T13:55:42;98778.59;;;14.64;69.45
12636;BME280;6383;50.830;7.210;2023-03-31T13:58:36;98786.81;;;14.64;69.64
12636;BME280;6383;50.830;7.210;2023-03-31T14:01:20;98789.19;;;14.65;69.47